Meteo Giornale » Osservazioni meteo Stati Uniti (USA) » Hays
ore: 01:56 - Osservazioni Meteo Hays
Lat. 38° 51' N Lon. 99° 16' W Alt. 609 metri s.l.m.
27 °C
Sereno
Temp. 24 Ore
22 °C
38 °C
Sud/Sud-Ovest
20.3 Km/h
Dew point 15 °C
Umidità 47 %
Visibilità 10 Km
Il sole sorge alle ore 07:06
Il sole tramonta alle ore 20:07
| Data e Ora | Cielo e Fenomeni | T °C | DP °C | Um. % | Pres. hPa | Vis. km | Vento km/h | |
|---|---|---|---|---|---|---|---|---|
| Oggi h: 01:56 | Sereno | 27 | 15 | 47 | 1014 | 10 | S/SO 20.3 | |
| Oggi h: 00:56 | Sereno | 28 | 16 | 48 | 1014 | 10 | S 27.8 | |
| Ieri h: 23:56 | Sereno | 28 | 16 | 48 | 1014 | 10 | S 22.2 | |
| Ieri h: 22:56 | Sereno | 28 | 16 | 48 | 1014 | 10 | S/SE 14.8 | |
| Ieri h: 21:56 | Sereno | 30 | 15 | 40 | 1014 | 10 | N 0 | |
| Ieri h: 20:56 | Sereno | 33 | 16 | 36 | 1012 | 10 | S/SE 9.3 | |
| Ieri h: 19:56 | Sereno | 32 | 19 | 46 | 1012 | 10 | N/NE 9.3 | |
| Ieri h: 18:56 | Sereno | 36 | 18 | 34 | 1011 | 10 | N/NO 16.7 | |
| Ieri h: 17:56 | Sereno | 38 | 16 | 27 | 1012 | 10 | S/SE 9.3 | |
| Ieri h: 16:56 | Sereno | 38 | 16 | 27 | 1012 | 10 | S/SO 14.8 | |
| Ieri h: 15:56 | Sereno | 37 | 16 | 28 | 1013 | 10 | S/SO 9.3 | |
| Ieri h: 14:56 | Sereno | 37 | 17 | 30 | 1014 | 10 | S/SO 14.8 | |
| Ieri h: 13:56 | Sereno | 35 | 17 | 34 | 1015 | 10 | S/SE 9.3 | |
| Ieri h: 12:56 | Sereno | 33 | 17 | 38 | 1015 | 10 | S/SE 11.1 | |
| Ieri h: 11:56 | Sereno | 32 | 17 | 40 | 1015 | 14 | S 14.8 | |
| Ieri h: 10:56 | Sereno | 29 | 17 | 48 | 1015 | 10 | S 18.5 | |
| Ieri h: 09:56 | Sereno | 27 | 20 | 65 | 1015 | 10 | SE 14.8 | |
| Ieri h: 08:56 | Poco Nuvoloso | 24 | 20 | 78 | 1015 | 10 | SE 13 | |
| Ieri h: 07:56 | Molto Nuvoloso | 22 | 19 | 83 | 1015 | 10 | S/SE 11.1 | |
| Ieri h: 06:56 | Sereno | 23 | 19 | 78 | 1015 | 10 | N 5.5 | |
| Ieri h: 05:56 | Molto Nuvoloso | 23 | 19 | 78 | 1015 | 10 | N/NO 22.2 | |
| Ieri h: 05:39 | Coperto | 24 | 19 | 73 | 1015 | 10 | NO 25.9 | |
| Ieri h: 05:18 | Temporale nelle vicinanze | 24 | 19 | 73 | 1015 | 10 | NO 24 | |
| Ieri h: 04:56 | Temporale nelle vicinanze | 24 | 19 | 73 | 1015 | 10 | O/NO 16.7 | |
| Ieri h: 04:35 | Temporale nelle vicinanze | 24 | 20 | 78 | 1015 | 10 | NO 16.7 | |
| Ieri h: 04:21 | Coperto | 24 | 20 | 78 | 1015 | 10 | O/NO 24 | |
| Ieri h: 04:06 | Temporale nelle vicinanze Pioggia | 24 | 21 | 83 | 1015 | 10 | NO 18.5 | |
| Ieri h: 03:56 | Pioggia | 25 | 20 | 73 | 1015 | 10 | O/NO 18.5 | |
| Ieri h: 03:52 | Pioggia | 26 | 20 | 69 | 1015 | 10 | O/NO 20.3 | |
| Ieri h: 03:37 | Temporale nelle vicinanze | 25 | 21 | 78 | 1014 | 10 | O 16.7 | |
| Ieri h: 02:56 | Nuvoloso | 26 | 20 | 69 | 1012 | 10 | O/SO 11.1 | |



